sensor_id;sensor_type;location;lat;lon;timestamp;pressure;altitude;pressure_sealevel;temperature;humidity
5691;BME280;2870;42.680;23.364;2023-09-19T00:01:33;95513.97;;;17.73;79.96
5691;BME280;2870;42.680;23.364;2023-09-19T00:04:01;95507.69;;;17.65;80.41
5691;BME280;2870;42.680;23.364;2023-09-19T00:06:28;95510.81;;;17.79;80.39
5691;BME280;2870;42.680;23.364;2023-09-19T00:08:57;95512.00;;;17.66;80.42
5691;BME280;2870;42.680;23.364;2023-09-19T00:11:25;95509.78;;;17.74;80.36
5691;BME280;2870;42.680;23.364;2023-09-19T00:13:52;95512.78;;;17.76;80.29
5691;BME280;2870;42.680;23.364;2023-09-19T00:16:19;95511.56;;;17.79;80.23
5691;BME280;2870;42.680;23.364;2023-09-19T00:18:46;95502.59;;;17.73;80.45
5691;BME280;2870;42.680;23.364;2023-09-19T00:21:15;95502.88;;;17.67;81.00
5691;BME280;2870;42.680;23.364;2023-09-19T00:23:42;95502.88;;;17.67;80.77
5691;BME280;2870;42.680;23.364;2023-09-19T00:26:09;95504.53;;;17.70;80.90
5691;BME280;2870;42.680;23.364;2023-09-19T00:28:35;95496.59;;;17.69;80.87
5691;BME280;2870;42.680;23.364;2023-09-19T00:31:02;95502.00;;;17.65;81.22
5691;BME280;2870;42.680;23.364;2023-09-19T00:33:30;95496.16;;;17.63;81.70
5691;BME280;2870;42.680;23.364;2023-09-19T00:35:57;95498.72;;;17.59;81.50
5691;BME280;2870;42.680;23.364;2023-09-19T00:38:26;95491.84;;;17.62;81.25
5691;BME280;2870;42.680;23.364;2023-09-19T00:40:54;95493.34;;;17.43;82.57
5691;BME280;2870;42.680;23.364;2023-09-19T00:43:22;95488.44;;;17.44;82.80
5691;BME280;2870;42.680;23.364;2023-09-19T00:45:51;95480.53;;;17.42;82.79
5691;BME280;2870;42.680;23.364;2023-09-19T00:48:19;95481.41;;;17.45;82.89
5691;BME280;2870;42.680;23.364;2023-09-19T00:50:47;95470.97;;;17.38;83.45
5691;BME280;2870;42.680;23.364;2023-09-19T00:53:17;95481.56;;;17.37;83.47
5691;BME280;2870;42.680;23.364;2023-09-19T00:55:46;95483.06;;;17.29;83.81
5691;BME280;2870;42.680;23.364;2023-09-19T00:58:13;95482.03;;;17.14;84.96
5691;BME280;2870;42.680;23.364;2023-09-19T01:00:40;95488.28;;;17.13;84.95
5691;BME280;2870;42.680;23.364;2023-09-19T01:03:10;95475.41;;;16.83;86.94
5691;BME280;2870;42.680;23.364;2023-09-19T01:05:38;95483.63;;;16.88;86.74
5691;BME280;2870;42.680;23.364;2023-09-19T01:08:05;95478.72;;;16.99;86.27
5691;BME280;2870;42.680;23.364;2023-09-19T01:10:33;95477.25;;;16.98;86.35
5691;BME280;2870;42.680;23.364;2023-09-19T01:13:06;95487.25;;;17.08;86.72
5691;BME280;2870;42.680;23.364;2023-09-19T01:15:44;95484.69;;;17.03;86.16
5691;BME280;2870;42.680;23.364;2023-09-19T01:18:21;95477.78;;;16.77;87.84
5691;BME280;2870;42.680;23.364;2023-09-19T01:20:59;95484.66;;;16.74;87.90
5691;BME280;2870;42.680;23.364;2023-09-19T01:23:42;95477.75;;;16.67;88.44
5691;BME280;2870;42.680;23.364;2023-09-19T01:26:32;95484.88;;;16.58;89.05
5691;BME280;2870;42.680;23.364;2023-09-19T01:29:23;95490.47;;;16.76;88.09
5691;BME280;2870;42.680;23.364;2023-09-19T01:32:01;95487.94;;;16.89;87.88
5691;BME280;2870;42.680;23.364;2023-09-19T01:34:43;95484.06;;;16.75;88.22
5691;BME280;2870;42.680;23.364;2023-09-19T01:37:12;95478.41;;;16.75;88.49
5691;BME280;2870;42.680;23.364;2023-09-19T01:39:39;95479.56;;;16.72;88.43
5691;BME280;2870;42.680;23.364;2023-09-19T01:42:12;95482.06;;;16.58;89.46
5691;BME280;2870;42.680;23.364;2023-09-19T01:44:55;95478.09;;;16.71;88.91
5691;BME280;2870;42.680;23.364;2023-09-19T01:47:29;95479.59;;;16.82;88.17
5691;BME280;2870;42.680;23.364;2023-09-19T01:50:05;95475.38;;;16.73;88.81
5691;BME280;2870;42.680;23.364;2023-09-19T01:52:38;95470.50;;;16.74;88.81
5691;BME280;2870;42.680;23.364;2023-09-19T01:55:10;95478.84;;;16.81;88.49
5691;BME280;2870;42.680;23.364;2023-09-19T01:57:45;95474.25;;;16.86;87.85
5691;BME280;2870;42.680;23.364;2023-09-19T02:02:54;95490.47;;;16.76;88.51
5691;BME280;2870;42.680;23.364;2023-09-19T02:05:24;95488.09;;;16.82;88.31
5691;BME280;2870;42.680;23.364;2023-09-19T02:07:52;95493.47;;;16.87;87.79
5691;BME280;2870;42.680;23.364;2023-09-19T02:10:19;95482.91;;;16.98;87.27
5691;BME280;2870;42.680;23.364;2023-09-19T02:12:46;95482.75;;;16.86;87.88
5691;BME280;2870;42.680;23.364;2023-09-19T02:15:13;95485.13;;;16.80;88.17
5691;BME280;2870;42.680;23.364;2023-09-19T02:17:41;95477.06;;;16.86;87.94
5691;BME280;2870;42.680;23.364;2023-09-19T02:20:10;95488.25;;;16.74;88.52
5691;BME280;2870;42.680;23.364;2023-09-19T02:22:40;95480.75;;;16.69;88.47
5691;BME280;2870;42.680;23.364;2023-09-19T02:25:07;95485.88;;;16.80;88.25
5691;BME280;2870;42.680;23.364;2023-09-19T02:27:34;95477.38;;;16.80;88.29
5691;BME280;2870;42.680;23.364;2023-09-19T02:30:01;95477.00;;;16.66;88.87
5691;BME280;2870;42.680;23.364;2023-09-19T02:32:29;95445.06;;;16.56;88.32
5691;BME280;2870;42.680;23.364;2023-09-19T02:34:56;95426.16;;;16.59;88.46
5691;BME280;2870;42.680;23.364;2023-09-19T02:37:25;95463.19;;;16.80;88.04
5691;BME280;2870;42.680;23.364;2023-09-19T02:39:52;95462.69;;;16.64;88.88
5691;BME280;2870;42.680;23.364;2023-09-19T02:42:19;95462.09;;;16.66;88.54
5691;BME280;2870;42.680;23.364;2023-09-19T02:44:46;95455.06;;;16.67;88.73
5691;BME280;2870;42.680;23.364;2023-09-19T02:47:13;95452.59;;;16.71;88.46
5691;BME280;2870;42.680;23.364;2023-09-19T02:49:42;95455.06;;;16.67;88.77
5691;BME280;2870;42.680;23.364;2023-09-19T02:52:09;95446.59;;;16.67;88.63
5691;BME280;2870;42.680;23.364;2023-09-19T02:54:38;95455.25;;;16.69;88.89
5691;BME280;2870;42.680;23.364;2023-09-19T02:57:05;95445.56;;;16.72;88.89
5691;BME280;2870;42.680;23.364;2023-09-19T02:59:33;95442.41;;;16.58;89.51
5691;BME280;2870;42.680;23.364;2023-09-19T03:02:02;95436.44;;;16.64;88.81
5691;BME280;2870;42.680;23.364;2023-09-19T03:04:30;95432.59;;;16.69;88.62
5691;BME280;2870;42.680;23.364;2023-09-19T03:06:58;95429.19;;;16.71;88.63
5691;BME280;2870;42.680;23.364;2023-09-19T03:09:26;95436.88;;;16.51;89.37
5691;BME280;2870;42.680;23.364;2023-09-19T03:11:55;95431.03;;;16.39;90.39
5691;BME280;2870;42.680;23.364;2023-09-19T03:14:22;95440.44;;;16.41;89.74
5691;BME280;2870;42.680;23.364;2023-09-19T03:16:49;95434.13;;;16.33;90.85
5691;BME280;2870;42.680;23.364;2023-09-19T03:19:17;95435.50;;;16.42;90.34
5691;BME280;2870;42.680;23.364;2023-09-19T03:21:46;95438.16;;;16.30;90.93
5691;BME280;2870;42.680;23.364;2023-09-19T03:24:16;95431.47;;;16.35;90.71
5691;BME280;2870;42.680;23.364;2023-09-19T03:26:42;95431.31;;;16.33;90.81
5691;BME280;2870;42.680;23.364;2023-09-19T03:29:12;95421.31;;;16.32;90.43
5691;BME280;2870;42.680;23.364;2023-09-19T03:31:39;95426.84;;;16.30;90.56
5691;BME280;2870;42.680;23.364;2023-09-19T03:34:06;95433.06;;;16.19;91.19
5691;BME280;2870;42.680;23.364;2023-09-19T03:36:34;95422.16;;;16.06;91.32
5691;BME280;2870;42.680;23.364;2023-09-19T03:39:01;95432.88;;;16.07;91.68
5691;BME280;2870;42.680;23.364;2023-09-19T03:41:30;95439.00;;;16.13;91.58
5691;BME280;2870;42.680;23.364;2023-09-19T03:43:57;95445.41;;;16.14;91.32
5691;BME280;2870;42.680;23.364;2023-09-19T03:46:25;95446.91;;;16.15;91.54
5691;BME280;2870;42.680;23.364;2023-09-19T03:48:52;95451.53;;;16.20;91.26
5691;BME280;2870;42.680;23.364;2023-09-19T03:51:20;95446.56;;;16.11;91.83
5691;BME280;2870;42.680;23.364;2023-09-19T03:53:47;95440.91;;;16.11;91.68
5691;BME280;2870;42.680;23.364;2023-09-19T03:56:14;95454.50;;;16.12;92.33
5691;BME280;2870;42.680;23.364;2023-09-19T03:58:41;95454.44;;;16.03;92.93
5691;BME280;2870;42.680;23.364;2023-09-19T04:01:08;95451.00;;;16.04;92.99
5691;BME280;2870;42.680;23.364;2023-09-19T04:03:36;95454.28;;;16.01;93.25
5691;BME280;2870;42.680;23.364;2023-09-19T04:06:12;95453.38;;;15.98;93.40
5691;BME280;2870;42.680;23.364;2023-09-19T04:08:38;95455.72;;;15.92;93.25
5691;BME280;2870;42.680;23.364;2023-09-19T04:11:05;95461.84;;;15.88;93.19
5691;BME280;2870;42.680;23.364;2023-09-19T04:13:32;95460.53;;;15.99;92.78
5691;BME280;2870;42.680;23.364;2023-09-19T04:15:59;95466.22;;;16.09;92.39
5691;BME280;2870;42.680;23.364;2023-09-19T04:18:26;95470.94;;;15.97;93.34
5691;BME280;2870;42.680;23.364;2023-09-19T04:20:54;95477.50;;;15.99;93.28
5691;BME280;2870;42.680;23.364;2023-09-19T04:23:21;95464.88;;;16.00;92.76
5691;BME280;2870;42.680;23.364;2023-09-19T04:25:48;95474.38;;;15.95;93.32
5691;BME280;2870;42.680;23.364;2023-09-19T04:28:14;95470.56;;;16.10;93.62
5691;BME280;2870;42.680;23.364;2023-09-19T04:30:42;95460.16;;;16.22;93.08
5691;BME280;2870;42.680;23.364;2023-09-19T04:33:09;95459.16;;;16.27;92.03
5691;BME280;2870;42.680;23.364;2023-09-19T04:35:37;95465.13;;;16.31;91.72
5691;BME280;2870;42.680;23.364;2023-09-19T04:38:06;95460.94;;;16.23;91.78
5691;BME280;2870;42.680;23.364;2023-09-19T04:40:32;95466.88;;;16.17;92.03
5691;BME280;2870;42.680;23.364;2023-09-19T04:42:59;95462.63;;;16.35;91.41
5691;BME280;2870;42.680;23.364;2023-09-19T04:45:27;95464.38;;;16.31;91.21
5691;BME280;2870;42.680;23.364;2023-09-19T04:47:54;95464.19;;;16.19;91.72
5691;BME280;2870;42.680;23.364;2023-09-19T04:50:22;95462.25;;;16.22;91.78
5691;BME280;2870;42.680;23.364;2023-09-19T04:52:53;95457.97;;;16.30;91.51
5691;BME280;2870;42.680;23.364;2023-09-19T04:55:21;95452.06;;;16.46;90.88
5691;BME280;2870;42.680;23.364;2023-09-19T04:57:49;95451.03;;;16.51;90.53
5691;BME280;2870;42.680;23.364;2023-09-19T05:00:19;95451.94;;;16.53;90.06
5691;BME280;2870;42.680;23.364;2023-09-19T05:02:50;95450.09;;;16.29;91.40
5691;BME280;2870;42.680;23.364;2023-09-19T05:05:17;95442.22;;;16.47;90.29
5691;BME280;2870;42.680;23.364;2023-09-19T05:07:45;95444.31;;;16.56;89.99
5691;BME280;2870;42.680;23.364;2023-09-19T05:10:12;95440.47;;;16.61;89.66
5691;BME280;2870;42.680;23.364;2023-09-19T05:12:41;95446.13;;;16.61;89.74
5691;BME280;2870;42.680;23.364;2023-09-19T05:15:10;95445.16;;;16.85;89.42
5691;BME280;2870;42.680;23.364;2023-09-19T05:17:38;95444.22;;;16.73;89.14
5691;BME280;2870;42.680;23.364;2023-09-19T05:20:06;95458.00;;;17.06;87.67
5691;BME280;2870;42.680;23.364;2023-09-19T05:22:42;95447.25;;;17.23;87.27
5691;BME280;2870;42.680;23.364;2023-09-19T05:25:09;95453.78;;;17.55;86.00
5691;BME280;2870;42.680;23.364;2023-09-19T05:27:36;95443.50;;;17.50;85.52
5691;BME280;2870;42.680;23.364;2023-09-19T05:30:05;95437.03;;;17.69;84.78
5691;BME280;2870;42.680;23.364;2023-09-19T05:32:32;95440.31;;;17.75;84.49
5691;BME280;2870;42.680;23.364;2023-09-19T05:34:59;95438.00;;;18.02;82.88
5691;BME280;2870;42.680;23.364;2023-09-19T05:37:26;95425.75;;;18.10;83.55
5691;BME280;2870;42.680;23.364;2023-09-19T05:39:53;95437.38;;;18.14;82.03
5691;BME280;2870;42.680;23.364;2023-09-19T05:42:20;95431.97;;;18.18;80.64
5691;BME280;2870;42.680;23.364;2023-09-19T05:44:46;95433.88;;;17.84;82.22
5691;BME280;2870;42.680;23.364;2023-09-19T05:47:14;95432.72;;;18.18;80.82
5691;BME280;2870;42.680;23.364;2023-09-19T05:49:41;95428.16;;;18.35;79.87
5691;BME280;2870;42.680;23.364;2023-09-19T05:52:09;95434.47;;;18.54;79.46
5691;BME280;2870;42.680;23.364;2023-09-19T05:54:36;95435.28;;;18.45;79.44
5691;BME280;2870;42.680;23.364;2023-09-19T05:57:03;95429.81;;;18.59;78.94
5691;BME280;2870;42.680;23.364;2023-09-19T05:59:30;95433.38;;;18.38;78.71
5691;BME280;2870;42.680;23.364;2023-09-19T06:01:57;95431.81;;;18.47;80.88
5691;BME280;2870;42.680;23.364;2023-09-19T06:04:26;95422.31;;;18.64;79.76
5691;BME280;2870;42.680;23.364;2023-09-19T06:06:53;95426.81;;;18.88;78.28
5691;BME280;2870;42.680;23.364;2023-09-19T06:09:20;95425.13;;;18.95;78.15
5691;BME280;2870;42.680;23.364;2023-09-19T06:11:47;95424.16;;;19.02;77.61
5691;BME280;2870;42.680;23.364;2023-09-19T06:14:13;95418.44;;;18.90;77.91
5691;BME280;2870;42.680;23.364;2023-09-19T06:16:43;95418.63;;;18.83;77.55
5691;BME280;2870;42.680;23.364;2023-09-19T06:19:10;95422.34;;;18.54;79.63
5691;BME280;2870;42.680;23.364;2023-09-19T06:21:38;95427.56;;;18.67;78.42
5691;BME280;2870;42.680;23.364;2023-09-19T06:24:06;95418.94;;;18.56;79.23
5691;BME280;2870;42.680;23.364;2023-09-19T06:26:33;95418.09;;;18.96;77.91
5691;BME280;2870;42.680;23.364;2023-09-19T06:28:59;95429.53;;;18.86;78.05
5691;BME280;2870;42.680;23.364;2023-09-19T06:31:26;95421.06;;;18.76;78.42
5691;BME280;2870;42.680;23.364;2023-09-19T06:33:53;95410.56;;;19.00;79.41
5691;BME280;2870;42.680;23.364;2023-09-19T06:36:20;95405.75;;;19.03;77.90
5691;BME280;2870;42.680;23.364;2023-09-19T06:38:48;95407.16;;;19.14;76.77
5691;BME280;2870;42.680;23.364;2023-09-19T06:41:17;95414.00;;;19.20;75.44
5691;BME280;2870;42.680;23.364;2023-09-19T06:43:44;95424.19;;;19.35;76.17
5691;BME280;2870;42.680;23.364;2023-09-19T06:46:10;95425.44;;;19.77;73.38
5691;BME280;2870;42.680;23.364;2023-09-19T06:48:38;95426.16;;;19.66;75.05
5691;BME280;2870;42.680;23.364;2023-09-19T06:51:04;95428.28;;;19.65;73.28
5691;BME280;2870;42.680;23.364;2023-09-19T06:53:31;95426.66;;;19.74;73.84
5691;BME280;2870;42.680;23.364;2023-09-19T06:56:01;95433.00;;;19.84;72.18
5691;BME280;2870;42.680;23.364;2023-09-19T06:58:28;95429.06;;;19.89;71.79
5691;BME280;2870;42.680;23.364;2023-09-19T07:00:56;95417.66;;;19.44;73.45
5691;BME280;2870;42.680;23.364;2023-09-19T07:03:23;95436.19;;;19.67;73.23
5691;BME280;2870;42.680;23.364;2023-09-19T07:05:52;95431.28;;;20.02;72.12
5691;BME280;2870;42.680;23.364;2023-09-19T07:08:21;95447.56;;;20.23;70.78
5691;BME280;2870;42.680;23.364;2023-09-19T07:10:48;95431.22;;;20.47;69.98
5691;BME280;2870;42.680;23.364;2023-09-19T07:13:19;95435.31;;;20.68;69.40
5691;BME280;2870;42.680;23.364;2023-09-19T07:15:46;95436.53;;;20.29;69.47
5691;BME280;2870;42.680;23.364;2023-09-19T07:18:13;95430.19;;;20.19;70.01
5691;BME280;2870;42.680;23.364;2023-09-19T07:20:42;95437.16;;;20.39;68.90
5691;BME280;2870;42.680;23.364;2023-09-19T07:25:39;95432.94;;;20.64;68.50
5691;BME280;2870;42.680;23.364;2023-09-19T07:28:06;95430.34;;;20.56;67.55
5691;BME280;2870;42.680;23.364;2023-09-19T07:30:35;95439.50;;;20.78;67.13
5691;BME280;2870;42.680;23.364;2023-09-19T07:33:04;95439.63;;;20.69;66.92
5691;BME280;2870;42.680;23.364;2023-09-19T07:35:31;95439.03;;;20.58;67.27
5691;BME280;2870;42.680;23.364;2023-09-19T07:37:58;95430.84;;;20.76;66.40
5691;BME280;2870;42.680;23.364;2023-09-19T07:40:26;95431.94;;;20.36;68.63
5691;BME280;2870;42.680;23.364;2023-09-19T07:42:54;95436.53;;;20.41;68.17
5691;BME280;2870;42.680;23.364;2023-09-19T07:45:21;95431.09;;;20.22;68.72
5691;BME280;2870;42.680;23.364;2023-09-19T07:47:50;95436.41;;;20.39;68.27
5691;BME280;2870;42.680;23.364;2023-09-19T07:50:18;95439.16;;;20.37;69.12
5691;BME280;2870;42.680;23.364;2023-09-19T07:52:45;95436.03;;;20.45;68.44
5691;BME280;2870;42.680;23.364;2023-09-19T07:55:12;95440.34;;;20.92;66.77
5691;BME280;2870;42.680;23.364;2023-09-19T07:57:42;95435.78;;;20.87;67.01
5691;BME280;2870;42.680;23.364;2023-09-19T08:00:10;95443.41;;;21.08;66.81
5691;BME280;2870;42.680;23.364;2023-09-19T08:02:37;95444.28;;;21.11;65.91
5691;BME280;2870;42.680;23.364;2023-09-19T08:05:07;95446.16;;;21.43;65.42
5691;BME280;2870;42.680;23.364;2023-09-19T08:07:35;95439.75;;;21.31;65.48
5691;BME280;2870;42.680;23.364;2023-09-19T08:10:03;95429.44;;;21.38;64.89
5691;BME280;2870;42.680;23.364;2023-09-19T08:12:29;95432.38;;;22.16;61.87
5691;BME280;2870;42.680;23.364;2023-09-19T08:14:57;95433.25;;;22.33;61.87
5691;BME280;2870;42.680;23.364;2023-09-19T08:17:24;95425.19;;;22.15;61.42
5691;BME280;2870;42.680;23.364;2023-09-19T08:19:51;95418.72;;;22.15;63.37
5691;BME280;2870;42.680;23.364;2023-09-19T08:22:20;95421.59;;;22.29;61.39
5691;BME280;2870;42.680;23.364;2023-09-19T08:24:47;95420.47;;;22.75;59.94
5691;BME280;2870;42.680;23.364;2023-09-19T08:27:14;95410.09;;;22.82;59.16
5691;BME280;2870;42.680;23.364;2023-09-19T08:29:43;95410.41;;;22.88;60.15
5691;BME280;2870;42.680;23.364;2023-09-19T08:32:10;95400.75;;;22.67;59.94
5691;BME280;2870;42.680;23.364;2023-09-19T08:34:37;95417.53;;;23.30;58.90
5691;BME280;2870;42.680;23.364;2023-09-19T08:37:04;95426.25;;;23.32;56.79
5691;BME280;2870;42.680;23.364;2023-09-19T08:39:32;95425.25;;;23.41;57.14
5691;BME280;2870;42.680;23.364;2023-09-19T08:42:02;95423.75;;;22.97;57.93
5691;BME280;2870;42.680;23.364;2023-09-19T08:44:30;95424.25;;;23.07;59.74
5691;BME280;2870;42.680;23.364;2023-09-19T08:47:09;95422.91;;;22.94;58.44
5691;BME280;2870;42.680;23.364;2023-09-19T08:49:41;95408.63;;;23.38;58.34
5691;BME280;2870;42.680;23.364;2023-09-19T08:52:19;95409.97;;;22.80;58.54
5691;BME280;2870;42.680;23.364;2023-09-19T08:54:52;95411.66;;;23.12;58.31
5691;BME280;2870;42.680;23.364;2023-09-19T08:57:19;95409.88;;;22.78;58.06
5691;BME280;2870;42.680;23.364;2023-09-19T08:59:48;95411.78;;;22.87;59.78
5691;BME280;2870;42.680;23.364;2023-09-19T09:02:16;95409.53;;;23.13;58.03
5691;BME280;2870;42.680;23.364;2023-09-19T09:04:45;95408.78;;;23.56;56.64
5691;BME280;2870;42.680;23.364;2023-09-19T09:07:13;95407.81;;;23.51;57.20
5691;BME280;2870;42.680;23.364;2023-09-19T09:09:41;95398.00;;;23.40;56.44
5691;BME280;2870;42.680;23.364;2023-09-19T09:12:13;95398.72;;;23.11;57.56
5691;BME280;2870;42.680;23.364;2023-09-19T09:14:40;95392.09;;;22.93;58.82
5691;BME280;2870;42.680;23.364;2023-09-19T09:17:11;95392.81;;;22.80;58.66
5691;BME280;2870;42.680;23.364;2023-09-19T09:19:38;95388.97;;;23.46;56.91
5691;BME280;2870;42.680;23.364;2023-09-19T09:22:07;95385.31;;;23.89;56.02
5691;BME280;2870;42.680;23.364;2023-09-19T09:24:34;95390.31;;;24.20;54.58
5691;BME280;2870;42.680;23.364;2023-09-19T09:27:04;95388.88;;;24.35;54.12
5691;BME280;2870;42.680;23.364;2023-09-19T09:29:52;95389.09;;;24.25;54.35
5691;BME280;2870;42.680;23.364;2023-09-19T09:32:21;95389.28;;;24.45;53.58
5691;BME280;2870;42.680;23.364;2023-09-19T09:34:51;95372.91;;;23.84;56.09
5691;BME280;2870;42.680;23.364;2023-09-19T09:37:18;95383.72;;;23.86;55.29
5691;BME280;2870;42.680;23.364;2023-09-19T09:39:49;95378.56;;;24.95;54.39
5691;BME280;2870;42.680;23.364;2023-09-19T09:42:29;95368.31;;;25.59;51.75
5691;BME280;2870;42.680;23.364;2023-09-19T09:45:15;95364.13;;;25.62;51.60
5691;BME280;2870;42.680;23.364;2023-09-19T09:47:44;95367.22;;;26.04;50.14
5691;BME280;2870;42.680;23.364;2023-09-19T09:50:27;95367.91;;;25.67;49.09
5691;BME280;2870;42.680;23.364;2023-09-19T09:53:04;95364.84;;;25.09;50.41
5691;BME280;2870;42.680;23.364;2023-09-19T09:55:57;95357.16;;;25.14;51.18
5691;BME280;2870;42.680;23.364;2023-09-19T09:58:25;95347.22;;;24.83;52.19
5691;BME280;2870;42.680;23.364;2023-09-19T10:00:56;95344.34;;;24.49;53.41
5691;BME280;2870;42.680;23.364;2023-09-19T10:03:34;95344.31;;;24.65;52.00
5691;BME280;2870;42.680;23.364;2023-09-19T10:06:06;95357.31;;;25.35;50.03
5691;BME280;2870;42.680;23.364;2023-09-19T10:09:03;95349.84;;;25.28;50.18
5691;BME280;2870;42.680;23.364;2023-09-19T10:11:41;95347.81;;;25.13;51.66
5691;BME280;2870;42.680;23.364;2023-09-19T10:14:10;95344.34;;;24.83;52.20
5691;BME280;2870;42.680;23.364;2023-09-19T10:16:45;95347.69;;;24.28;53.06
5691;BME280;2870;42.680;23.364;2023-09-19T10:19:16;95348.22;;;24.56;55.64
5691;BME280;2870;42.680;23.364;2023-09-19T10:21:50;95337.66;;;24.94;52.01
5691;BME280;2870;42.680;23.364;2023-09-19T10:24:21;95338.06;;;24.87;50.89
5691;BME280;2870;42.680;23.364;2023-09-19T10:26:50;95333.28;;;24.75;51.75
5691;BME280;2870;42.680;23.364;2023-09-19T10:29:18;95334.81;;;24.78;51.79
5691;BME280;2870;42.680;23.364;2023-09-19T10:31:49;95340.00;;;24.32;53.10
5691;BME280;2870;42.680;23.364;2023-09-19T10:34:19;95332.91;;;24.67;53.07
5691;BME280;2870;42.680;23.364;2023-09-19T10:36:48;95331.09;;;24.92;51.94
5691;BME280;2870;42.680;23.364;2023-09-19T10:39:17;95320.22;;;24.72;52.71
5691;BME280;2870;42.680;23.364;2023-09-19T10:41:50;95332.13;;;24.49;53.06
5691;BME280;2870;42.680;23.364;2023-09-19T10:44:23;95320.78;;;24.51;52.79
5691;BME280;2870;42.680;23.364;2023-09-19T10:46:52;95322.94;;;24.35;53.68
5691;BME280;2870;42.680;23.364;2023-09-19T10:49:19;95318.91;;;24.26;54.13
5691;BME280;2870;42.680;23.364;2023-09-19T10:51:47;95316.56;;;24.70;53.16
5691;BME280;2870;42.680;23.364;2023-09-19T10:54:17;95315.34;;;24.93;54.18
5691;BME280;2870;42.680;23.364;2023-09-19T10:56:48;95313.22;;;24.93;52.00
5691;BME280;2870;42.680;23.364;2023-09-19T10:59:18;95311.53;;;24.70;53.24
5691;BME280;2870;42.680;23.364;2023-09-19T11:01:48;95307.25;;;25.05;51.83
5691;BME280;2870;42.680;23.364;2023-09-19T11:04:31;95308.13;;;25.25;52.40
5691;BME280;2870;42.680;23.364;2023-09-19T11:07:00;95307.44;;;25.09;52.40
5691;BME280;2870;42.680;23.364;2023-09-19T11:09:46;95304.66;;;25.11;53.70
5691;BME280;2870;42.680;23.364;2023-09-19T11:12:47;95309.59;;;25.26;51.85
5691;BME280;2870;42.680;23.364;2023-09-19T11:24:30;95292.44;;;25.10;52.31
5691;BME280;2870;42.680;23.364;2023-09-19T11:27:16;95294.88;;;25.54;52.80
5691;BME280;2870;42.680;23.364;2023-09-19T11:29:44;95282.59;;;25.33;51.39
5691;BME280;2870;42.680;23.364;2023-09-19T11:32:12;95286.84;;;24.97;52.17
5691;BME280;2870;42.680;23.364;2023-09-19T11:34:46;95286.09;;;25.50;52.29
5691;BME280;2870;42.680;23.364;2023-09-19T11:46:55;95257.19;;;25.08;52.19
5691;BME280;2870;42.680;23.364;2023-09-19T11:49:27;95241.66;;;25.33;51.65
5691;BME280;2870;42.680;23.364;2023-09-19T11:51:56;95238.88;;;25.17;52.05
5691;BME280;2870;42.680;23.364;2023-09-19T11:54:23;95236.03;;;25.55;51.72
5691;BME280;2870;42.680;23.364;2023-09-19T11:56:54;95241.09;;;26.14;49.29
5691;BME280;2870;42.680;23.364;2023-09-19T11:59:22;95247.41;;;26.30;48.81
5691;BME280;2870;42.680;23.364;2023-09-19T12:01:51;95252.22;;;26.24;48.22
5691;BME280;2870;42.680;23.364;2023-09-19T12:04:33;95244.34;;;26.04;49.15
5691;BME280;2870;42.680;23.364;2023-09-19T12:07:01;95238.44;;;25.80;50.63
5691;BME280;2870;42.680;23.364;2023-09-19T12:09:28;95234.91;;;26.02;50.42
5691;BME280;2870;42.680;23.364;2023-09-19T12:11:56;95231.72;;;26.33;48.27
5691;BME280;2870;42.680;23.364;2023-09-19T12:14:24;95222.41;;;26.35;47.65
5691;BME280;2870;42.680;23.364;2023-09-19T12:16:55;95228.16;;;26.77;47.37
5691;BME280;2870;42.680;23.364;2023-09-19T12:19:22;95218.97;;;26.38;47.28
5691;BME280;2870;42.680;23.364;2023-09-19T12:21:59;95219.13;;;26.64;47.38
5691;BME280;2870;42.680;23.364;2023-09-19T12:24:29;95221.59;;;26.52;47.55
5691;BME280;2870;42.680;23.364;2023-09-19T12:27:02;95207.59;;;26.42;47.85
5691;BME280;2870;42.680;23.364;2023-09-19T12:29:30;95206.13;;;26.41;47.85
5691;BME280;2870;42.680;23.364;2023-09-19T12:31:58;95197.25;;;26.55;47.38
5691;BME280;2870;42.680;23.364;2023-09-19T12:34:30;95203.88;;;26.18;47.77
5691;BME280;2870;42.680;23.364;2023-09-19T12:37:07;95195.81;;;26.14;48.63
5691;BME280;2870;42.680;23.364;2023-09-19T12:39:46;95197.25;;;26.55;46.92
5691;BME280;2870;42.680;23.364;2023-09-19T12:42:19;95197.13;;;26.31;48.33
5691;BME280;2870;42.680;23.364;2023-09-19T12:44:47;95195.56;;;25.86;48.85
5691;BME280;2870;42.680;23.364;2023-09-19T12:47:17;95182.75;;;26.09;48.17
5691;BME280;2870;42.680;23.364;2023-09-19T12:50:07;95185.00;;;26.55;47.70
5691;BME280;2870;42.680;23.364;2023-09-19T12:52:39;95189.81;;;26.48;47.25
5691;BME280;2870;42.680;23.364;2023-09-19T12:55:06;95195.53;;;26.68;46.92
5691;BME280;2870;42.680;23.364;2023-09-19T12:57:37;95184.78;;;26.49;47.79
5691;BME280;2870;42.680;23.364;2023-09-19T13:00:06;95156.03;;;26.07;47.97
5691;BME280;2870;42.680;23.364;2023-09-19T13:02:36;95184.50;;;26.40;48.51
5691;BME280;2870;42.680;23.364;2023-09-19T13:05:03;95178.94;;;26.45;48.02
5691;BME280;2870;42.680;23.364;2023-09-19T13:07:42;95171.34;;;26.77;47.63
5691;BME280;2870;42.680;23.364;2023-09-19T13:10:12;95168.94;;;26.91;46.71
5691;BME280;2870;42.680;23.364;2023-09-19T13:12:43;95160.59;;;26.78;46.53
5691;BME280;2870;42.680;23.364;2023-09-19T13:15:14;95160.97;;;26.90;46.45
5691;BME280;2870;42.680;23.364;2023-09-19T13:17:45;95153.53;;;26.83;47.11
5691;BME280;2870;42.680;23.364;2023-09-19T13:20:23;95135.25;;;26.72;46.77
5691;BME280;2870;42.680;23.364;2023-09-19T13:22:54;95161.09;;;26.94;47.68
5691;BME280;2870;42.680;23.364;2023-09-19T13:25:24;95161.72;;;26.68;47.64
5691;BME280;2870;42.680;23.364;2023-09-19T13:27:53;95155.69;;;26.82;47.74
5691;BME280;2870;42.680;23.364;2023-09-19T13:30:22;95155.88;;;26.88;48.65
5691;BME280;2870;42.680;23.364;2023-09-19T13:32:51;95151.41;;;26.83;47.82
5691;BME280;2870;42.680;23.364;2023-09-19T13:35:18;95143.34;;;27.02;46.94
5691;BME280;2870;42.680;23.364;2023-09-19T13:37:47;95137.84;;;27.34;46.31
5691;BME280;2870;42.680;23.364;2023-09-19T13:40:15;95136.31;;;27.31;46.10
5691;BME280;2870;42.680;23.364;2023-09-19T13:42:42;95137.75;;;27.30;46.75
5691;BME280;2870;42.680;23.364;2023-09-19T13:45:10;95145.75;;;27.09;46.16
5691;BME280;2870;42.680;23.364;2023-09-19T13:47:41;95142.66;;;27.03;46.44